createdAt,value
2023-05-19T00:00:40.527Z,14.69
2023-05-19T00:03:09.219Z,14.60
2023-05-19T00:05:40.845Z,14.65
2023-05-19T00:08:11.205Z,14.50
2023-05-19T00:10:39.898Z,14.55
2023-05-19T00:13:08.426Z,14.70
2023-05-19T00:15:36.766Z,14.61
2023-05-19T00:18:04.448Z,14.73
2023-05-19T00:20:32.344Z,14.79
2023-05-19T00:22:59.998Z,14.93
2023-05-19T00:25:27.881Z,14.81
2023-05-19T00:27:55.343Z,14.52
2023-05-19T00:30:23.019Z,14.60
2023-05-19T00:32:50.732Z,14.74
2023-05-19T00:35:18.505Z,14.70
2023-05-19T00:37:46.712Z,14.70
2023-05-19T00:40:14.477Z,14.67
2023-05-19T00:42:42.512Z,14.82
2023-05-19T00:45:13.409Z,14.94
2023-05-19T00:47:41.475Z,14.75
2023-05-19T00:50:09.623Z,14.64
2023-05-19T00:52:37.179Z,14.58
2023-05-19T00:55:05.182Z,14.49
2023-05-19T00:57:32.692Z,14.33
2023-05-19T01:00:00.324Z,14.23
2023-05-19T01:02:29.815Z,14.66
2023-05-19T01:04:58.101Z,14.68
2023-05-19T01:07:25.975Z,14.71
2023-05-19T01:09:53.899Z,14.64
2023-05-19T01:12:21.506Z,14.66
2023-05-19T01:14:49.675Z,14.57
2023-05-19T01:17:34.404Z,14.46
2023-05-19T01:20:16.812Z,14.48
2023-05-19T01:23:07.420Z,14.42
2023-05-19T01:26:00.918Z,14.39
2023-05-19T01:29:23.077Z,14.28
2023-05-19T01:31:51.229Z,14.25
2023-05-19T01:34:21.564Z,14.24
2023-05-19T01:36:51.133Z,14.39
2023-05-19T01:39:20.804Z,14.32
2023-05-19T01:41:49.328Z,14.19
2023-05-19T01:44:16.939Z,14.24
2023-05-19T01:46:45.658Z,14.28
2023-05-19T01:49:14.635Z,14.28
2023-05-19T01:51:42.310Z,14.29
2023-05-19T01:54:09.878Z,14.44
2023-05-19T01:57:00.689Z,14.64
2023-05-19T02:00:07.954Z,14.35
2023-05-19T02:03:07.908Z,14.24
2023-05-19T02:06:00.280Z,14.03
2023-05-19T02:08:31.055Z,14.04
2023-05-19T02:11:07.420Z,14.08
2023-05-19T02:13:39.731Z,14.05
2023-05-19T02:16:08.470Z,14.07
2023-05-19T02:18:35.997Z,14.08
2023-05-19T02:21:03.942Z,13.94
2023-05-19T02:23:31.760Z,14.29
2023-05-19T02:25:59.215Z,14.28
2023-05-19T02:28:28.519Z,13.96
2023-05-19T02:30:56.073Z,14.20
2023-05-19T02:33:26.207Z,14.28
2023-05-19T02:35:54.057Z,14.08
2023-05-19T02:38:24.563Z,14.22
2023-05-19T02:40:53.849Z,14.24
2023-05-19T02:43:21.348Z,13.95
2023-05-19T02:45:48.805Z,14.09
2023-05-19T02:48:16.280Z,14.08
2023-05-19T02:50:43.822Z,14.10
2023-05-19T02:53:11.382Z,14.24
2023-05-19T02:55:39.032Z,14.17
2023-05-19T02:58:06.685Z,14.29
2023-05-19T03:00:34.396Z,14.32
2023-05-19T03:03:03.031Z,14.34
2023-05-19T03:05:32.015Z,14.03
2023-05-19T03:07:59.619Z,13.93
2023-05-19T03:10:27.173Z,14.08
2023-05-19T03:12:58.106Z,14.06
2023-05-19T03:15:28.606Z,13.97
2023-05-19T03:17:56.564Z,14.20
2023-05-19T03:20:24.663Z,14.22
2023-05-19T03:22:52.482Z,14.14
2023-05-19T03:25:20.112Z,13.93
2023-05-19T03:27:47.692Z,14.09
2023-05-19T03:30:15.516Z,14.26
2023-05-19T03:32:58.013Z,14.00
2023-05-19T03:35:25.700Z,13.99
2023-05-19T03:37:53.189Z,14.01
2023-05-19T03:40:21.788Z,13.88
2023-05-19T03:42:50.567Z,14.19
2023-05-19T03:45:18.105Z,14.13
2023-05-19T03:47:49.258Z,14.14
2023-05-19T03:50:34.721Z,14.32
2023-05-19T03:53:12.982Z,14.52
2023-05-19T03:55:42.097Z,14.25
2023-05-19T03:58:10.710Z,14.37
2023-05-19T04:00:42.078Z,14.31
2023-05-19T04:03:09.808Z,14.26
2023-05-19T04:05:37.471Z,14.23
2023-05-19T04:08:05.117Z,14.39
2023-05-19T04:10:32.886Z,14.81
2023-05-19T04:13:00.727Z,14.70
2023-05-19T04:15:28.469Z,14.70
2023-05-19T04:17:56.639Z,14.87
2023-05-19T04:20:24.163Z,15.10
2023-05-19T04:22:51.763Z,15.20
2023-05-19T04:25:20.305Z,15.59
2023-05-19T04:27:48.825Z,15.53
2023-05-19T04:30:22.479Z,15.55
2023-05-19T04:32:52.708Z,15.82
2023-05-19T04:35:20.465Z,15.91
2023-05-19T04:37:48.775Z,16.10
2023-05-19T04:40:23.853Z,15.84
2023-05-19T04:42:52.896Z,15.94
2023-05-19T04:45:21.210Z,15.78
2023-05-19T04:47:52.778Z,16.02
2023-05-19T04:50:23.817Z,15.89
2023-05-19T04:52:51.834Z,15.92
2023-05-19T04:55:19.791Z,15.96
2023-05-19T04:57:48.992Z,15.82
2023-05-19T05:00:17.049Z,16.07
2023-05-19T05:02:57.653Z,16.09
2023-05-19T05:05:27.254Z,16.13
2023-05-19T05:07:54.967Z,16.26
2023-05-19T05:10:27.097Z,16.26
2023-05-19T05:12:55.533Z,16.61
2023-05-19T05:15:24.442Z,16.56
2023-05-19T05:17:52.994Z,16.47
2023-05-19T05:20:22.642Z,16.63
2023-05-19T05:22:50.588Z,16.50
2023-05-19T05:25:19.116Z,16.51
2023-05-19T05:27:46.949Z,17.14
2023-05-19T05:30:15.063Z,17.23
2023-05-19T05:32:43.328Z,16.97
2023-05-19T05:35:26.045Z,17.00
2023-05-19T05:37:54.142Z,17.43
2023-05-19T05:40:24.853Z,17.37
2023-05-19T05:42:55.632Z,17.45
2023-05-19T05:45:24.738Z,17.57
2023-05-19T05:47:53.599Z,17.74
2023-05-19T05:50:22.296Z,17.76
2023-05-19T05:52:52.701Z,17.81
2023-05-19T05:55:21.137Z,17.97
2023-05-19T05:57:50.659Z,18.00
2023-05-19T06:00:19.478Z,17.91
2023-05-19T06:02:52.460Z,18.07
2023-05-19T06:05:21.048Z,18.31
2023-05-19T06:07:49.632Z,18.23
2023-05-19T06:10:26.479Z,18.58
2023-05-19T06:12:55.570Z,18.44
2023-05-19T06:15:25.706Z,18.41
2023-05-19T06:18:03.894Z,18.53
2023-05-19T06:20:31.813Z,18.63
2023-05-19T06:23:19.579Z,19.04
2023-05-19T06:25:47.257Z,18.94
2023-05-19T06:28:14.989Z,19.26
2023-05-19T06:30:42.642Z,19.14
2023-05-19T06:33:34.778Z,18.90
2023-05-19T06:36:02.348Z,19.25
2023-05-19T06:38:31.577Z,19.36
2023-05-19T06:40:59.878Z,19.14
2023-05-19T06:43:27.506Z,19.20
2023-05-19T06:46:02.484Z,19.28
2023-05-19T06:48:34.032Z,19.37
2023-05-19T06:51:01.654Z,19.60
2023-05-19T06:53:29.219Z,19.69
2023-05-19T06:55:59.482Z,19.73
2023-05-19T06:58:31.863Z,19.78
2023-05-19T07:01:00.709Z,19.74
2023-05-19T07:03:33.651Z,20.08
2023-05-19T07:06:01.492Z,20.07
2023-05-19T07:08:29.868Z,20.42
2023-05-19T07:11:00.437Z,20.57
2023-05-19T07:13:29.273Z,20.62
2023-05-19T07:15:57.432Z,20.79
2023-05-19T07:18:26.344Z,21.10
2023-05-19T07:20:54.112Z,20.87
2023-05-19T07:23:21.996Z,20.90
2023-05-19T07:25:49.714Z,20.92
2023-05-19T07:28:19.510Z,21.04
2023-05-19T07:30:47.726Z,21.02
2023-05-19T07:33:15.346Z,21.09
2023-05-19T07:35:44.539Z,21.25
2023-05-19T07:38:12.308Z,21.42
2023-05-19T07:40:39.915Z,21.67
2023-05-19T07:43:07.433Z,21.79
2023-05-19T07:45:35.050Z,21.81
2023-05-19T07:48:05.725Z,21.88
2023-05-19T07:50:33.395Z,21.96
2023-05-19T07:53:01.308Z,22.14
2023-05-19T07:55:28.908Z,22.14
2023-05-19T07:57:57.363Z,22.37
2023-05-19T08:00:25.098Z,22.58
2023-05-19T08:02:53.391Z,22.80
2023-05-19T08:05:21.080Z,22.84
2023-05-19T08:07:48.826Z,22.85
2023-05-19T08:10:16.448Z,23.00
2023-05-19T08:12:44.276Z,23.15
2023-05-19T08:15:12.083Z,23.22
2023-05-19T08:17:39.771Z,23.50
2023-05-19T08:20:10.132Z,23.50
2023-05-19T08:22:37.713Z,23.95
2023-05-19T08:25:06.371Z,23.65
2023-05-19T08:27:34.037Z,23.79
2023-05-19T08:30:05.666Z,23.71
2023-05-19T08:32:34.708Z,23.63
2023-05-19T08:35:02.267Z,23.90
2023-05-19T08:37:31.425Z,23.95
2023-05-19T08:40:00.314Z,24.08
2023-05-19T08:42:29.377Z,24.01
2023-05-19T08:44:57.003Z,23.98
2023-05-19T08:47:24.818Z,23.88
2023-05-19T08:50:07.908Z,24.39
2023-05-19T08:53:31.726Z,24.46
2023-05-19T08:56:13.319Z,24.73
2023-05-19T08:58:43.999Z,24.69
2023-05-19T09:01:18.350Z,24.71
2023-05-19T09:03:49.581Z,24.68
2023-05-19T09:06:17.414Z,24.80
2023-05-19T09:08:45.348Z,24.92
2023-05-19T09:11:13.344Z,24.48
2023-05-19T09:13:41.389Z,24.54
2023-05-19T09:16:09.295Z,24.62
2023-05-19T09:18:42.616Z,24.89
2023-05-19T09:21:11.310Z,24.66
2023-05-19T09:23:38.859Z,24.65
2023-05-19T09:26:07.910Z,24.27
2023-05-19T09:28:38.031Z,23.99
2023-05-19T09:31:10.496Z,23.77
2023-05-19T09:33:45.808Z,23.62
2023-05-19T09:36:14.669Z,23.50
2023-05-19T09:38:42.636Z,23.34
2023-05-19T09:41:10.299Z,23.39
2023-05-19T09:43:37.930Z,24.01
2023-05-19T09:46:12.907Z,23.62
2023-05-19T09:48:42.633Z,23.76
2023-05-19T09:51:10.779Z,23.67
2023-05-19T09:53:39.208Z,23.69
2023-05-19T09:56:10.049Z,23.83
2023-05-19T09:58:39.122Z,23.83
2023-05-19T10:01:07.684Z,24.34
2023-05-19T10:03:35.502Z,24.49
2023-05-19T10:06:05.578Z,25.14
2023-05-19T10:08:36.319Z,25.86
2023-05-19T10:11:04.344Z,26.01
2023-05-19T10:13:32.821Z,25.84
2023-05-19T10:16:01.361Z,25.79
2023-05-19T10:18:32.313Z,26.41
2023-05-19T10:21:01.409Z,26.93
2023-05-19T10:23:29.021Z,27.07
2023-05-19T10:25:59.593Z,27.39
2023-05-19T10:28:38.138Z,27.69
2023-05-19T10:31:11.649Z,27.80
2023-05-19T10:34:19.268Z,27.97
2023-05-19T10:37:15.021Z,27.93
2023-05-19T10:39:44.943Z,28.04
2023-05-19T10:42:38.581Z,28.28
2023-05-19T10:45:18.907Z,28.32
2023-05-19T10:47:46.960Z,28.33
2023-05-19T10:50:14.736Z,28.55
2023-05-19T10:52:45.610Z,28.52
2023-05-19T10:55:18.039Z,28.48
2023-05-19T10:57:58.543Z,28.67
2023-05-19T11:00:31.356Z,28.82
2023-05-19T11:03:18.621Z,28.68
2023-05-19T11:05:46.561Z,28.93
2023-05-19T11:08:14.230Z,29.10
2023-05-19T11:10:46.421Z,28.87
2023-05-19T11:13:22.614Z,28.91
2023-05-19T11:15:50.775Z,29.15
2023-05-19T11:18:21.288Z,29.20
2023-05-19T11:20:58.334Z,29.46
2023-05-19T11:23:27.137Z,29.51
2023-05-19T11:25:54.689Z,29.59
2023-05-19T11:28:26.712Z,29.84
2023-05-19T11:31:00.098Z,29.79
2023-05-19T11:33:28.237Z,29.29
2023-05-19T11:35:58.488Z,28.68
2023-05-19T11:38:29.283Z,28.23
2023-05-19T11:40:57.415Z,28.30
2023-05-19T11:43:26.480Z,28.68
2023-05-19T11:45:56.005Z,28.95
2023-05-19T11:48:24.859Z,29.11
2023-05-19T11:50:52.624Z,29.42
2023-05-19T11:53:21.706Z,29.51
2023-05-19T11:55:50.020Z,29.94
2023-05-19T11:58:18.203Z,29.82
2023-05-19T12:00:47.717Z,29.97
2023-05-19T12:03:15.743Z,29.94
2023-05-19T12:05:49.391Z,29.87
2023-05-19T12:08:20.195Z,30.04
2023-05-19T12:10:52.201Z,30.13
2023-05-19T12:13:23.511Z,30.04
2023-05-19T12:15:53.533Z,29.94
2023-05-19T12:18:21.441Z,29.88
2023-05-19T12:20:49.406Z,29.70
2023-05-19T12:23:17.158Z,29.27
2023-05-19T12:25:44.763Z,29.31
2023-05-19T12:28:12.265Z,29.48
2023-05-19T12:30:40.062Z,29.86
2023-05-19T12:33:09.847Z,30.06
2023-05-19T12:35:38.473Z,30.32
2023-05-19T12:38:07.736Z,30.78
2023-05-19T12:40:37.537Z,30.91
2023-05-19T12:43:06.896Z,31.04
2023-05-19T12:45:38.676Z,30.88
2023-05-19T12:48:12.507Z,30.83
2023-05-19T12:50:40.204Z,30.87
2023-05-19T12:53:15.290Z,31.44
2023-05-19T12:55:45.970Z,31.17
2023-05-19T12:58:16.313Z,31.41
2023-05-19T13:00:47.444Z,30.74
2023-05-19T13:03:20.651Z,30.73
2023-05-19T13:05:50.876Z,30.26
2023-05-19T13:08:21.791Z,30.49
2023-05-19T13:10:49.776Z,30.79
2023-05-19T13:13:17.497Z,30.91
2023-05-19T13:15:48.967Z,30.94
2023-05-19T13:18:17.481Z,30.44
2023-05-19T13:20:47.201Z,29.87
2023-05-19T13:23:15.968Z,29.29
2023-05-19T13:25:43.810Z,28.93
2023-05-19T13:28:11.659Z,28.87
2023-05-19T13:30:41.937Z,29.48
2023-05-19T13:33:09.662Z,29.98
2023-05-19T13:35:37.923Z,30.36
2023-05-19T13:38:08.185Z,30.76
2023-05-19T13:40:36.877Z,30.90
2023-05-19T13:43:05.177Z,30.83
2023-05-19T13:45:32.787Z,30.31
2023-05-19T13:48:00.695Z,29.72
2023-05-19T13:50:28.271Z,28.98
2023-05-19T13:52:56.301Z,27.95
2023-05-19T13:55:23.885Z,27.10
2023-05-19T13:57:51.363Z,26.06
2023-05-19T14:00:20.049Z,25.63
2023-05-19T14:02:47.950Z,25.11
2023-05-19T14:05:15.677Z,24.56
2023-05-19T14:07:44.582Z,24.24
2023-05-19T14:10:12.340Z,24.00
2023-05-19T14:12:52.825Z,23.80
2023-05-19T14:15:29.290Z,23.57
2023-05-19T14:17:56.965Z,23.60
2023-05-19T14:20:24.400Z,23.57
2023-05-19T14:22:55.635Z,23.51
2023-05-19T14:25:23.171Z,23.60
2023-05-19T14:27:50.710Z,23.36
2023-05-19T14:30:18.255Z,23.28
2023-05-19T14:32:45.779Z,23.39
2023-05-19T14:35:13.904Z,23.65
2023-05-19T14:37:41.386Z,23.68
2023-05-19T14:40:12.275Z,23.69
2023-05-19T14:42:39.701Z,23.65
2023-05-19T14:45:07.939Z,23.55
2023-05-19T14:47:35.508Z,23.68
2023-05-19T14:50:03.116Z,24.01
2023-05-19T14:52:30.622Z,24.14
2023-05-19T14:54:58.100Z,24.10
2023-05-19T14:57:26.939Z,23.65
2023-05-19T14:59:54.412Z,23.67
2023-05-19T15:02:21.991Z,23.36
2023-05-19T15:04:49.484Z,23.39
2023-05-19T15:07:22.510Z,23.77
2023-05-19T15:09:50.045Z,24.22
2023-05-19T15:12:17.500Z,24.49
2023-05-19T15:14:45.177Z,24.64
2023-05-19T15:17:12.918Z,24.66
2023-05-19T15:19:43.260Z,24.81
2023-05-19T15:22:11.010Z,24.80
2023-05-19T15:24:38.620Z,24.45
2023-05-19T15:27:06.339Z,24.13
2023-05-19T15:29:35.322Z,24.17
2023-05-19T15:32:03.609Z,24.33
2023-05-19T15:34:31.255Z,24.23
2023-05-19T15:36:59.769Z,23.83
2023-05-19T15:39:27.236Z,23.77
2023-05-19T15:41:54.719Z,23.69
2023-05-19T15:44:26.068Z,23.56
2023-05-19T15:46:55.235Z,23.66
2023-05-19T15:49:23.746Z,23.58
2023-05-19T15:51:51.481Z,22.89
2023-05-19T15:54:19.673Z,22.61
2023-05-19T15:56:47.216Z,22.99
2023-05-19T15:59:14.673Z,22.73
2023-05-19T16:01:42.341Z,22.96
2023-05-19T16:04:10.008Z,23.01
2023-05-19T16:06:40.492Z,22.64
2023-05-19T16:09:08.237Z,22.53
2023-05-19T16:11:35.794Z,22.32
2023-05-19T16:14:06.911Z,22.05
2023-05-19T16:16:34.486Z,21.80
2023-05-19T16:19:02.655Z,21.80
2023-05-19T16:21:30.179Z,21.59
2023-05-19T16:23:57.733Z,21.90
2023-05-19T16:26:25.253Z,21.81
2023-05-19T16:28:55.967Z,21.62
2023-05-19T16:31:23.528Z,21.58
2023-05-19T16:33:51.043Z,21.73
2023-05-19T16:36:18.618Z,21.47
2023-05-19T16:38:46.168Z,21.73
2023-05-19T16:41:13.728Z,21.73
2023-05-19T16:43:41.851Z,21.53
2023-05-19T16:46:12.381Z,21.85
2023-05-19T16:48:41.418Z,21.40
2023-05-19T16:51:09.514Z,21.28
2023-05-19T16:53:47.958Z,21.74
2023-05-19T16:56:15.457Z,21.59
2023-05-19T16:58:44.672Z,21.06
2023-05-19T17:01:12.749Z,20.79
2023-05-19T17:03:43.627Z,20.89
2023-05-19T17:06:11.209Z,20.69
2023-05-19T17:08:39.715Z,20.57
2023-05-19T17:11:07.196Z,20.48
2023-05-19T17:13:36.721Z,20.73
2023-05-19T17:16:04.438Z,20.75
2023-05-19T17:18:34.070Z,20.63
2023-05-19T17:21:06.405Z,20.83
2023-05-19T17:23:35.987Z,20.71
2023-05-19T17:26:07.194Z,20.83
2023-05-19T17:28:34.784Z,21.15
2023-05-19T17:31:09.279Z,21.03
2023-05-19T17:33:37.607Z,20.96
2023-05-19T17:36:08.095Z,20.76
2023-05-19T17:38:40.199Z,20.55
2023-05-19T17:41:30.815Z,20.55
2023-05-19T17:43:58.759Z,20.33
2023-05-19T17:46:34.636Z,20.15
2023-05-19T17:49:02.760Z,20.17
2023-05-19T17:51:32.240Z,20.10
2023-05-19T17:54:00.977Z,20.03
2023-05-19T17:56:34.338Z,20.08
2023-05-19T17:59:02.134Z,20.19
2023-05-19T18:01:33.416Z,20.17
2023-05-19T18:04:16.155Z,20.19
2023-05-19T18:06:48.275Z,20.16
2023-05-19T18:09:22.961Z,20.01
2023-05-19T18:11:52.834Z,19.84
2023-05-19T18:14:25.289Z,19.82
2023-05-19T18:16:54.767Z,19.74
2023-05-19T18:19:25.843Z,19.62
2023-05-19T18:21:58.764Z,19.66
2023-05-19T18:24:29.695Z,19.62
2023-05-19T18:26:57.429Z,19.58
2023-05-19T18:29:26.587Z,19.66
2023-05-19T18:31:54.156Z,19.67
2023-05-19T18:34:24.516Z,19.56
2023-05-19T18:36:53.955Z,19.50
2023-05-19T18:39:21.538Z,19.47
2023-05-19T18:41:50.927Z,19.36
2023-05-19T18:44:18.645Z,19.42
2023-05-19T18:46:50.469Z,19.53
2023-05-19T18:49:19.087Z,19.30
2023-05-19T18:51:48.883Z,19.32
2023-05-19T18:54:16.565Z,19.23
2023-05-19T18:56:44.553Z,19.12
2023-05-19T18:59:14.100Z,18.99
2023-05-19T19:01:45.374Z,18.97
2023-05-19T19:04:14.915Z,18.86
2023-05-19T19:06:45.831Z,18.87
2023-05-19T19:09:15.236Z,18.74
2023-05-19T19:11:47.514Z,18.63
2023-05-19T19:14:19.516Z,18.71
2023-05-19T19:16:48.602Z,18.64
2023-05-19T19:19:24.011Z,18.59
2023-05-19T19:21:54.367Z,18.62
2023-05-19T19:24:43.195Z,18.70
2023-05-19T19:27:18.989Z,18.44
2023-05-19T19:29:51.822Z,18.45
2023-05-19T19:32:24.812Z,18.46
2023-05-19T19:34:55.273Z,18.51
2023-05-19T19:37:23.008Z,18.47
2023-05-19T19:39:52.230Z,18.43
2023-05-19T19:42:22.361Z,18.21
2023-05-19T19:44:54.550Z,18.18
2023-05-19T19:47:22.487Z,18.16
2023-05-19T19:49:56.070Z,18.07
2023-05-19T19:52:26.123Z,17.93
2023-05-19T19:54:54.264Z,17.76
2023-05-19T19:57:24.219Z,17.79
2023-05-19T19:59:55.240Z,17.68
2023-05-19T20:02:27.908Z,17.61
2023-05-19T20:04:55.582Z,17.62
2023-05-19T20:07:23.397Z,17.54
2023-05-19T20:09:59.006Z,17.64
2023-05-19T20:12:27.664Z,17.86
2023-05-19T20:14:56.343Z,17.72
2023-05-19T20:17:23.874Z,17.70
2023-05-19T20:19:53.742Z,17.59
2023-05-19T20:22:21.392Z,17.57
2023-05-19T20:24:49.300Z,17.64
2023-05-19T20:27:17.825Z,17.79
2023-05-19T20:29:47.076Z,17.93
2023-05-19T20:32:14.524Z,17.84
2023-05-19T20:34:43.396Z,17.82
2023-05-19T20:37:13.814Z,17.64
2023-05-19T20:39:41.457Z,17.60
2023-05-19T20:42:09.736Z,17.72
2023-05-19T20:44:37.712Z,17.56
2023-05-19T20:47:08.103Z,17.34
2023-05-19T20:49:36.119Z,17.09
2023-05-19T20:52:03.880Z,17.14
2023-05-19T20:54:31.381Z,16.99
2023-05-19T20:56:59.457Z,16.98
2023-05-19T20:59:28.002Z,16.90
2023-05-19T21:01:57.485Z,16.98
2023-05-19T21:04:28.716Z,16.99
2023-05-19T21:06:57.140Z,17.06
2023-05-19T21:09:25.828Z,17.11
2023-05-19T21:11:53.724Z,17.06
2023-05-19T21:14:23.629Z,17.14
2023-05-19T21:16:54.401Z,17.07
2023-05-19T21:19:23.001Z,17.06
2023-05-19T21:21:51.213Z,17.07
2023-05-19T21:24:18.792Z,17.07
2023-05-19T21:26:46.361Z,17.08
2023-05-19T21:29:13.966Z,17.06
2023-05-19T21:31:41.542Z,17.01
2023-05-19T21:34:09.202Z,16.97
2023-05-19T21:36:38.015Z,17.10
2023-05-19T21:39:07.266Z,17.00
2023-05-19T21:41:35.571Z,17.03
2023-05-19T21:44:03.560Z,17.06
2023-05-19T21:46:31.516Z,17.03
2023-05-19T21:48:59.169Z,17.03
2023-05-19T21:51:27.977Z,16.78
2023-05-19T21:53:55.749Z,16.84
2023-05-19T21:56:23.389Z,16.92
2023-05-19T21:58:51.027Z,16.78
2023-05-19T22:01:18.986Z,16.72
2023-05-19T22:03:46.666Z,16.74
2023-05-19T22:06:14.361Z,16.75
2023-05-19T22:08:42.024Z,16.76
2023-05-19T22:11:09.504Z,16.78
2023-05-19T22:13:41.141Z,16.65
2023-05-19T22:16:09.042Z,16.56
2023-05-19T22:18:36.624Z,16.42
2023-05-19T22:21:04.372Z,16.61
2023-05-19T22:23:32.291Z,16.69
2023-05-19T22:25:59.819Z,16.56
2023-05-19T22:28:27.498Z,16.30
2023-05-19T22:30:55.023Z,16.33
2023-05-19T22:33:22.686Z,16.53
2023-05-19T22:35:50.699Z,16.42
2023-05-19T22:38:18.202Z,16.24
2023-05-19T22:40:45.966Z,16.13
2023-05-19T22:43:13.563Z,15.97
2023-05-19T22:45:41.641Z,15.81
2023-05-19T22:48:09.321Z,15.65
2023-05-19T22:50:36.893Z,15.67
2023-05-19T22:53:04.374Z,15.79
2023-05-19T22:55:32.424Z,15.73
2023-05-19T22:58:00.172Z,15.71
2023-05-19T23:00:27.732Z,15.69
2023-05-19T23:02:55.425Z,15.87
2023-05-19T23:05:23.031Z,15.86
2023-05-19T23:07:50.516Z,15.78
2023-05-19T23:10:18.154Z,15.73
2023-05-19T23:12:45.646Z,15.63
2023-05-19T23:15:14.346Z,15.56
2023-05-19T23:17:41.826Z,15.53
2023-05-19T23:20:10.175Z,15.37
2023-05-19T23:22:37.647Z,15.32
2023-05-19T23:25:07.704Z,15.27
2023-05-19T23:27:36.437Z,15.43
2023-05-19T23:30:05.090Z,15.29
2023-05-19T23:32:33.034Z,15.15
2023-05-19T23:35:13.854Z,15.07
2023-05-19T23:37:41.572Z,15.15
2023-05-19T23:40:09.708Z,14.99
2023-05-19T23:42:37.303Z,15.02
2023-05-19T23:45:05.625Z,15.10
2023-05-19T23:47:33.181Z,15.08
2023-05-19T23:50:00.702Z,15.22
2023-05-19T23:52:28.214Z,15.20
2023-05-19T23:54:55.784Z,15.21
2023-05-19T23:57:23.247Z,15.12
2023-05-19T23:59:50.725Z,15.07
